sensor_id;sensor_type;location;lat;lon;timestamp;P1;durP1;ratioP1;P2;durP2;ratioP2
76447;SDS011;65284;51.040;13.722;2024-02-04T00:00:40;2.08;;;1.30;;
76447;SDS011;65284;51.040;13.722;2024-02-04T00:03:06;2.83;;;1.20;;
76447;SDS011;65284;51.040;13.722;2024-02-04T00:05:33;3.22;;;1.33;;
76447;SDS011;65284;51.040;13.722;2024-02-04T00:07:59;2.50;;;1.30;;
76447;SDS011;65284;51.040;13.722;2024-02-04T00:10:26;2.40;;;1.38;;
76447;SDS011;65284;51.040;13.722;2024-02-04T00:12:53;4.03;;;1.45;;
76447;SDS011;65284;51.040;13.722;2024-02-04T00:15:20;2.63;;;1.30;;
76447;SDS011;65284;51.040;13.722;2024-02-04T00:17:46;2.97;;;1.50;;
76447;SDS011;65284;51.040;13.722;2024-02-04T00:20:13;3.67;;;1.45;;
76447;SDS011;65284;51.040;13.722;2024-02-04T00:22:39;2.38;;;1.35;;
76447;SDS011;65284;51.040;13.722;2024-02-04T00:25:06;2.50;;;1.40;;
76447;SDS011;65284;51.040;13.722;2024-02-04T00:27:32;2.35;;;1.10;;
76447;SDS011;65284;51.040;13.722;2024-02-04T00:29:59;2.17;;;1.30;;
76447;SDS011;65284;51.040;13.722;2024-02-04T00:32:26;3.63;;;1.30;;
76447;SDS011;65284;51.040;13.722;2024-02-04T00:34:53;2.65;;;1.20;;
76447;SDS011;65284;51.040;13.722;2024-02-04T00:37:19;3.15;;;1.50;;
76447;SDS011;65284;51.040;13.722;2024-02-04T00:39:46;4.90;;;1.40;;
76447;SDS011;65284;51.040;13.722;2024-02-04T00:42:12;2.63;;;1.40;;
76447;SDS011;65284;51.040;13.722;2024-02-04T00:44:39;2.15;;;1.20;;
76447;SDS011;65284;51.040;13.722;2024-02-04T00:47:05;3.30;;;1.50;;
76447;SDS011;65284;51.040;13.722;2024-02-04T00:49:32;3.13;;;1.50;;
76447;SDS011;65284;51.040;13.722;2024-02-04T00:51:58;3.13;;;1.52;;
76447;SDS011;65284;51.040;13.722;2024-02-04T00:54:25;3.42;;;1.50;;
76447;SDS011;65284;51.040;13.722;2024-02-04T00:56:51;4.18;;;1.80;;
76447;SDS011;65284;51.040;13.722;2024-02-04T00:59:18;3.10;;;1.30;;
76447;SDS011;65284;51.040;13.722;2024-02-04T01:01:44;3.85;;;1.45;;
76447;SDS011;65284;51.040;13.722;2024-02-04T01:04:11;2.25;;;1.23;;
76447;SDS011;65284;51.040;13.722;2024-02-04T01:06:38;2.40;;;1.30;;
76447;SDS011;65284;51.040;13.722;2024-02-04T01:09:22;2.50;;;1.10;;
76447;SDS011;65284;51.040;13.722;2024-02-04T01:11:48;3.38;;;1.35;;
76447;SDS011;65284;51.040;13.722;2024-02-04T01:14:14;2.78;;;1.20;;
76447;SDS011;65284;51.040;13.722;2024-02-04T01:16:41;2.33;;;1.05;;
76447;SDS011;65284;51.040;13.722;2024-02-04T01:19:07;3.03;;;1.20;;
76447;SDS011;65284;51.040;13.722;2024-02-04T01:21:34;3.03;;;1.05;;
76447;SDS011;65284;51.040;13.722;2024-02-04T01:24:00;2.95;;;1.10;;
76447;SDS011;65284;51.040;13.722;2024-02-04T01:26:27;2.65;;;1.20;;
76447;SDS011;65284;51.040;13.722;2024-02-04T01:28:53;2.00;;;1.00;;
76447;SDS011;65284;51.040;13.722;2024-02-04T01:31:20;2.22;;;1.10;;
76447;SDS011;65284;51.040;13.722;2024-02-04T01:33:46;2.00;;;0.90;;
76447;SDS011;65284;51.040;13.722;2024-02-04T01:36:13;2.40;;;1.10;;
76447;SDS011;65284;51.040;13.722;2024-02-04T01:38:39;3.65;;;1.00;;
76447;SDS011;65284;51.040;13.722;2024-02-04T01:41:06;3.00;;;1.05;;
76447;SDS011;65284;51.040;13.722;2024-02-04T01:43:32;2.95;;;1.00;;
76447;SDS011;65284;51.040;13.722;2024-02-04T01:45:59;2.50;;;0.90;;
76447;SDS011;65284;51.040;13.722;2024-02-04T01:48:25;1.98;;;0.80;;
76447;SDS011;65284;51.040;13.722;2024-02-04T01:50:53;2.17;;;0.85;;
76447;SDS011;65284;51.040;13.722;2024-02-04T01:53:21;2.42;;;0.82;;
76447;SDS011;65284;51.040;13.722;2024-02-04T01:55:49;3.60;;;0.90;;
76447;SDS011;65284;51.040;13.722;2024-02-04T01:58:16;2.15;;;1.00;;
76447;SDS011;65284;51.040;13.722;2024-02-04T02:00:43;2.38;;;1.00;;
76447;SDS011;65284;51.040;13.722;2024-02-04T02:03:11;2.70;;;0.98;;
76447;SDS011;65284;51.040;13.722;2024-02-04T02:05:39;1.90;;;0.85;;
76447;SDS011;65284;51.040;13.722;2024-02-04T02:08:06;2.60;;;0.90;;
76447;SDS011;65284;51.040;13.722;2024-02-04T02:10:33;1.50;;;0.70;;
76447;SDS011;65284;51.040;13.722;2024-02-04T02:13:00;2.65;;;0.93;;
76447;SDS011;65284;51.040;13.722;2024-02-04T02:15:34;2.00;;;1.27;;
76447;SDS011;65284;51.040;13.722;2024-02-04T02:18:14;2.88;;;1.00;;
76447;SDS011;65284;51.040;13.722;2024-02-04T02:24:03;2.35;;;1.10;;
76447;SDS011;65284;51.040;13.722;2024-02-04T02:26:36;2.70;;;1.30;;
76447;SDS011;65284;51.040;13.722;2024-02-04T02:29:05;2.80;;;1.30;;
76447;SDS011;65284;51.040;13.722;2024-02-04T02:31:31;3.65;;;1.50;;
76447;SDS011;65284;51.040;13.722;2024-02-04T02:34:12;3.65;;;1.55;;
76447;SDS011;65284;51.040;13.722;2024-02-04T02:37:08;4.25;;;1.77;;
76447;SDS011;65284;51.040;13.722;2024-02-04T02:40:05;3.70;;;1.85;;
76447;SDS011;65284;51.040;13.722;2024-02-04T02:42:34;6.88;;;2.22;;
76447;SDS011;65284;51.040;13.722;2024-02-04T02:45:02;4.60;;;2.35;;
76447;SDS011;65284;51.040;13.722;2024-02-04T02:47:29;5.65;;;2.33;;
76447;SDS011;65284;51.040;13.722;2024-02-04T02:49:56;5.75;;;3.17;;
76447;SDS011;65284;51.040;13.722;2024-02-04T02:52:22;5.82;;;2.45;;
76447;SDS011;65284;51.040;13.722;2024-02-04T02:54:49;4.40;;;2.42;;
76447;SDS011;65284;51.040;13.722;2024-02-04T02:57:15;6.10;;;2.50;;
76447;SDS011;65284;51.040;13.722;2024-02-04T02:59:42;6.07;;;2.80;;
76447;SDS011;65284;51.040;13.722;2024-02-04T03:02:09;6.57;;;2.42;;
76447;SDS011;65284;51.040;13.722;2024-02-04T03:04:35;6.43;;;2.63;;
76447;SDS011;65284;51.040;13.722;2024-02-04T03:07:02;5.50;;;2.63;;
76447;SDS011;65284;51.040;13.722;2024-02-04T03:09:30;5.40;;;2.50;;
76447;SDS011;65284;51.040;13.722;2024-02-04T03:11:57;5.80;;;2.63;;
76447;SDS011;65284;51.040;13.722;2024-02-04T03:14:23;7.65;;;2.85;;
76447;SDS011;65284;51.040;13.722;2024-02-04T03:16:49;5.45;;;2.40;;
76447;SDS011;65284;51.040;13.722;2024-02-04T03:19:20;6.97;;;2.95;;
76447;SDS011;65284;51.040;13.722;2024-02-04T03:21:47;5.22;;;2.53;;
76447;SDS011;65284;51.040;13.722;2024-02-04T03:24:13;4.65;;;2.05;;
76447;SDS011;65284;51.040;13.722;2024-02-04T03:26:40;4.75;;;2.20;;
76447;SDS011;65284;51.040;13.722;2024-02-04T03:29:06;4.43;;;1.92;;
76447;SDS011;65284;51.040;13.722;2024-02-04T03:31:33;4.53;;;1.85;;
76447;SDS011;65284;51.040;13.722;2024-02-04T03:33:59;5.38;;;1.92;;
76447;SDS011;65284;51.040;13.722;2024-02-04T03:36:26;4.38;;;1.67;;
76447;SDS011;65284;51.040;13.722;2024-02-04T03:38:53;3.75;;;1.20;;
76447;SDS011;65284;51.040;13.722;2024-02-04T03:41:20;2.65;;;1.15;;
76447;SDS011;65284;51.040;13.722;2024-02-04T03:43:46;2.95;;;1.20;;
76447;SDS011;65284;51.040;13.722;2024-02-04T03:46:16;3.58;;;1.50;;
76447;SDS011;65284;51.040;13.722;2024-02-04T03:48:43;4.55;;;1.20;;
76447;SDS011;65284;51.040;13.722;2024-02-04T03:51:16;2.63;;;1.15;;
76447;SDS011;65284;51.040;13.722;2024-02-04T03:53:43;3.15;;;1.15;;
76447;SDS011;65284;51.040;13.722;2024-02-04T03:56:10;3.33;;;1.23;;
76447;SDS011;65284;51.040;13.722;2024-02-04T03:58:36;3.05;;;1.23;;
76447;SDS011;65284;51.040;13.722;2024-02-04T04:01:03;3.50;;;1.23;;
76447;SDS011;65284;51.040;13.722;2024-02-04T04:03:30;3.90;;;1.70;;
76447;SDS011;65284;51.040;13.722;2024-02-04T04:05:57;3.67;;;1.70;;
76447;SDS011;65284;51.040;13.722;2024-02-04T04:08:23;3.70;;;1.90;;
76447;SDS011;65284;51.040;13.722;2024-02-04T04:10:50;4.05;;;1.77;;
76447;SDS011;65284;51.040;13.722;2024-02-04T04:13:17;5.38;;;1.90;;
76447;SDS011;65284;51.040;13.722;2024-02-04T04:15:43;4.88;;;2.03;;
76447;SDS011;65284;51.040;13.722;2024-02-04T04:18:10;4.70;;;2.10;;
76447;SDS011;65284;51.040;13.722;2024-02-04T04:23:06;5.00;;;2.00;;
76447;SDS011;65284;51.040;13.722;2024-02-04T04:25:33;4.85;;;2.28;;
76447;SDS011;65284;51.040;13.722;2024-02-04T04:27:59;3.60;;;1.70;;
76447;SDS011;65284;51.040;13.722;2024-02-04T04:30:26;4.70;;;1.95;;
76447;SDS011;65284;51.040;13.722;2024-02-04T04:32:52;4.78;;;1.90;;
76447;SDS011;65284;51.040;13.722;2024-02-04T04:35:19;4.28;;;1.63;;
76447;SDS011;65284;51.040;13.722;2024-02-04T04:37:46;4.30;;;1.60;;
76447;SDS011;65284;51.040;13.722;2024-02-04T04:40:12;4.78;;;1.63;;
76447;SDS011;65284;51.040;13.722;2024-02-04T04:42:39;6.05;;;1.92;;
76447;SDS011;65284;51.040;13.722;2024-02-04T04:45:06;4.03;;;1.65;;
76447;SDS011;65284;51.040;13.722;2024-02-04T04:47:34;3.60;;;1.45;;
76447;SDS011;65284;51.040;13.722;2024-02-04T04:50:01;4.20;;;1.60;;
76447;SDS011;65284;51.040;13.722;2024-02-04T04:52:27;4.15;;;1.70;;
76447;SDS011;65284;51.040;13.722;2024-02-04T04:54:54;3.63;;;1.67;;
76447;SDS011;65284;51.040;13.722;2024-02-04T04:57:22;3.35;;;1.40;;
76447;SDS011;65284;51.040;13.722;2024-02-04T04:59:48;4.57;;;1.42;;
76447;SDS011;65284;51.040;13.722;2024-02-04T05:02:15;4.05;;;1.40;;
76447;SDS011;65284;51.040;13.722;2024-02-04T05:04:44;3.30;;;1.50;;
76447;SDS011;65284;51.040;13.722;2024-02-04T05:07:11;3.58;;;1.60;;
76447;SDS011;65284;51.040;13.722;2024-02-04T05:09:38;3.28;;;1.40;;
76447;SDS011;65284;51.040;13.722;2024-02-04T05:12:06;3.65;;;1.40;;
76447;SDS011;65284;51.040;13.722;2024-02-04T05:17:00;3.30;;;1.30;;
76447;SDS011;65284;51.040;13.722;2024-02-04T05:19:27;5.57;;;1.23;;
76447;SDS011;65284;51.040;13.722;2024-02-04T05:21:53;3.33;;;1.40;;
76447;SDS011;65284;51.040;13.722;2024-02-04T05:24:20;3.50;;;1.33;;
76447;SDS011;65284;51.040;13.722;2024-02-04T05:26:46;3.40;;;1.50;;
76447;SDS011;65284;51.040;13.722;2024-02-04T05:29:13;2.70;;;1.23;;
76447;SDS011;65284;51.040;13.722;2024-02-04T05:31:40;2.88;;;1.10;;
76447;SDS011;65284;51.040;13.722;2024-02-04T05:34:10;3.13;;;1.38;;
76447;SDS011;65284;51.040;13.722;2024-02-04T05:36:37;3.53;;;1.40;;
76447;SDS011;65284;51.040;13.722;2024-02-04T05:41:40;3.30;;;1.45;;
76447;SDS011;65284;51.040;13.722;2024-02-04T05:44:08;3.75;;;1.50;;
76447;SDS011;65284;51.040;13.722;2024-02-04T05:46:35;4.43;;;1.60;;
76447;SDS011;65284;51.040;13.722;2024-02-04T05:49:02;5.28;;;1.88;;
76447;SDS011;65284;51.040;13.722;2024-02-04T05:51:31;3.78;;;1.80;;
76447;SDS011;65284;51.040;13.722;2024-02-04T05:53:58;3.47;;;1.30;;
76447;SDS011;65284;51.040;13.722;2024-02-04T05:56:25;3.88;;;1.52;;
76447;SDS011;65284;51.040;13.722;2024-02-04T05:58:51;3.75;;;1.85;;
76447;SDS011;65284;51.040;13.722;2024-02-04T06:01:18;4.30;;;1.73;;
76447;SDS011;65284;51.040;13.722;2024-02-04T06:03:44;3.78;;;1.60;;
76447;SDS011;65284;51.040;13.722;2024-02-04T06:06:14;4.38;;;1.75;;
76447;SDS011;65284;51.040;13.722;2024-02-04T06:08:46;4.40;;;1.65;;
76447;SDS011;65284;51.040;13.722;2024-02-04T06:11:13;3.85;;;1.70;;
76447;SDS011;65284;51.040;13.722;2024-02-04T06:13:40;4.30;;;1.90;;
76447;SDS011;65284;51.040;13.722;2024-02-04T06:16:08;5.68;;;1.95;;
76447;SDS011;65284;51.040;13.722;2024-02-04T06:18:36;4.15;;;1.80;;
76447;SDS011;65284;51.040;13.722;2024-02-04T06:21:06;4.82;;;1.73;;
76447;SDS011;65284;51.040;13.722;2024-02-04T06:23:33;3.88;;;1.58;;
76447;SDS011;65284;51.040;13.722;2024-02-04T06:26:00;4.28;;;1.60;;
76447;SDS011;65284;51.040;13.722;2024-02-04T06:28:27;4.35;;;1.50;;
76447;SDS011;65284;51.040;13.722;2024-02-04T06:30:54;3.65;;;1.52;;
76447;SDS011;65284;51.040;13.722;2024-02-04T06:33:21;3.42;;;1.42;;
76447;SDS011;65284;51.040;13.722;2024-02-04T06:35:49;2.75;;;1.30;;
76447;SDS011;65284;51.040;13.722;2024-02-04T06:38:16;5.82;;;1.48;;
76447;SDS011;65284;51.040;13.722;2024-02-04T06:40:43;3.30;;;1.60;;
76447;SDS011;65284;51.040;13.722;2024-02-04T06:43:10;3.47;;;1.50;;
76447;SDS011;65284;51.040;13.722;2024-02-04T06:45:37;3.80;;;1.67;;
76447;SDS011;65284;51.040;13.722;2024-02-04T06:48:03;3.85;;;1.35;;
76447;SDS011;65284;51.040;13.722;2024-02-04T06:50:30;6.70;;;1.58;;
76447;SDS011;65284;51.040;13.722;2024-02-04T06:52:57;3.63;;;1.67;;
76447;SDS011;65284;51.040;13.722;2024-02-04T06:55:23;4.28;;;1.40;;
76447;SDS011;65284;51.040;13.722;2024-02-04T06:57:50;3.28;;;1.60;;
76447;SDS011;65284;51.040;13.722;2024-02-04T07:00:16;4.38;;;1.65;;
76447;SDS011;65284;51.040;13.722;2024-02-04T07:02:42;2.80;;;1.20;;
76447;SDS011;65284;51.040;13.722;2024-02-04T07:05:09;3.53;;;1.45;;
76447;SDS011;65284;51.040;13.722;2024-02-04T07:07:37;4.82;;;1.13;;
76447;SDS011;65284;51.040;13.722;2024-02-04T07:10:03;3.58;;;1.10;;
76447;SDS011;65284;51.040;13.722;2024-02-04T07:12:31;2.85;;;1.20;;
76447;SDS011;65284;51.040;13.722;2024-02-04T07:14:57;2.20;;;1.10;;
76447;SDS011;65284;51.040;13.722;2024-02-04T07:17:24;2.60;;;1.00;;
76447;SDS011;65284;51.040;13.722;2024-02-04T07:19:51;2.38;;;1.00;;
76447;SDS011;65284;51.040;13.722;2024-02-04T07:22:17;1.73;;;0.85;;
76447;SDS011;65284;51.040;13.722;2024-02-04T07:24:44;2.63;;;1.10;;
76447;SDS011;65284;51.040;13.722;2024-02-04T07:27:10;2.08;;;1.02;;
76447;SDS011;65284;51.040;13.722;2024-02-04T07:29:37;2.58;;;1.00;;
76447;SDS011;65284;51.040;13.722;2024-02-04T07:32:03;2.17;;;1.05;;
76447;SDS011;65284;51.040;13.722;2024-02-04T07:34:30;2.35;;;0.90;;
76447;SDS011;65284;51.040;13.722;2024-02-04T07:36:56;1.80;;;0.90;;
76447;SDS011;65284;51.040;13.722;2024-02-04T07:39:23;2.15;;;0.80;;
76447;SDS011;65284;51.040;13.722;2024-02-04T07:41:49;2.20;;;0.73;;
76447;SDS011;65284;51.040;13.722;2024-02-04T07:44:16;1.33;;;0.70;;
76447;SDS011;65284;51.040;13.722;2024-02-04T07:46:42;1.10;;;0.60;;
76447;SDS011;65284;51.040;13.722;2024-02-04T07:49:09;1.08;;;0.50;;
76447;SDS011;65284;51.040;13.722;2024-02-04T07:51:35;1.20;;;0.50;;
76447;SDS011;65284;51.040;13.722;2024-02-04T07:54:02;1.10;;;0.55;;
76447;SDS011;65284;51.040;13.722;2024-02-04T07:56:29;1.30;;;0.50;;
76447;SDS011;65284;51.040;13.722;2024-02-04T07:58:55;0.80;;;0.40;;
76447;SDS011;65284;51.040;13.722;2024-02-04T08:01:22;1.20;;;0.50;;
76447;SDS011;65284;51.040;13.722;2024-02-04T08:03:50;0.73;;;0.40;;
76447;SDS011;65284;51.040;13.722;2024-02-04T08:06:17;0.68;;;0.30;;
76447;SDS011;65284;51.040;13.722;2024-02-04T08:08:43;0.90;;;0.50;;
76447;SDS011;65284;51.040;13.722;2024-02-04T08:11:18;0.60;;;0.35;;
76447;SDS011;65284;51.040;13.722;2024-02-04T08:13:45;1.27;;;0.30;;
76447;SDS011;65284;51.040;13.722;2024-02-04T08:16:11;0.85;;;0.40;;
76447;SDS011;65284;51.040;13.722;2024-02-04T08:18:39;1.13;;;0.30;;
76447;SDS011;65284;51.040;13.722;2024-02-04T08:21:06;1.00;;;0.30;;
76447;SDS011;65284;51.040;13.722;2024-02-04T08:23:32;0.80;;;0.30;;
76447;SDS011;65284;51.040;13.722;2024-02-04T08:25:59;1.52;;;0.47;;
76447;SDS011;65284;51.040;13.722;2024-02-04T08:28:26;0.60;;;0.30;;
76447;SDS011;65284;51.040;13.722;2024-02-04T08:30:52;0.93;;;0.30;;
76447;SDS011;65284;51.040;13.722;2024-02-04T08:33:19;2.00;;;0.40;;
76447;SDS011;65284;51.040;13.722;2024-02-04T08:35:45;0.70;;;0.30;;
76447;SDS011;65284;51.040;13.722;2024-02-04T08:38:12;0.40;;;0.20;;
76447;SDS011;65284;51.040;13.722;2024-02-04T08:40:38;0.40;;;0.30;;
76447;SDS011;65284;51.040;13.722;2024-02-04T08:43:05;1.08;;;0.40;;
76447;SDS011;65284;51.040;13.722;2024-02-04T08:45:31;0.43;;;0.20;;
76447;SDS011;65284;51.040;13.722;2024-02-04T08:47:58;1.42;;;0.22;;
76447;SDS011;65284;51.040;13.722;2024-02-04T08:50:24;0.52;;;0.30;;
76447;SDS011;65284;51.040;13.722;2024-02-04T08:52:51;1.48;;;0.20;;
76447;SDS011;65284;51.040;13.722;2024-02-04T08:55:18;0.43;;;0.20;;
76447;SDS011;65284;51.040;13.722;2024-02-04T08:57:45;0.52;;;0.28;;
76447;SDS011;65284;51.040;13.722;2024-02-04T09:00:11;1.33;;;0.20;;
76447;SDS011;65284;51.040;13.722;2024-02-04T09:02:38;0.68;;;0.20;;
76447;SDS011;65284;51.040;13.722;2024-02-04T09:05:05;0.45;;;0.28;;
76447;SDS011;65284;51.040;13.722;2024-02-04T09:07:32;1.58;;;0.30;;
76447;SDS011;65284;51.040;13.722;2024-02-04T09:09:59;0.90;;;0.40;;
76447;SDS011;65284;51.040;13.722;2024-02-04T09:12:26;0.35;;;0.20;;
76447;SDS011;65284;51.040;13.722;2024-02-04T09:14:53;1.15;;;0.40;;
76447;SDS011;65284;51.040;13.722;2024-02-04T09:17:19;1.58;;;0.40;;
76447;SDS011;65284;51.040;13.722;2024-02-04T09:19:45;0.88;;;0.45;;
76447;SDS011;65284;51.040;13.722;2024-02-04T09:22:12;2.40;;;0.50;;
76447;SDS011;65284;51.040;13.722;2024-02-04T09:24:39;1.13;;;0.45;;
76447;SDS011;65284;51.040;13.722;2024-02-04T09:27:05;1.13;;;0.60;;
76447;SDS011;65284;51.040;13.722;2024-02-04T09:29:32;1.63;;;0.50;;
76447;SDS011;65284;51.040;13.722;2024-02-04T09:31:58;1.30;;;0.60;;
76447;SDS011;65284;51.040;13.722;2024-02-04T09:34:25;2.78;;;0.60;;
76447;SDS011;65284;51.040;13.722;2024-02-04T09:36:52;1.92;;;0.57;;
76447;SDS011;65284;51.040;13.722;2024-02-04T09:39:19;1.10;;;0.60;;
76447;SDS011;65284;51.040;13.722;2024-02-04T09:41:46;0.73;;;0.43;;
76447;SDS011;65284;51.040;13.722;2024-02-04T09:44:12;1.15;;;0.45;;
76447;SDS011;65284;51.040;13.722;2024-02-04T09:46:44;0.80;;;0.40;;
76447;SDS011;65284;51.040;13.722;2024-02-04T09:49:11;1.20;;;0.40;;
76447;SDS011;65284;51.040;13.722;2024-02-04T09:51:40;0.77;;;0.38;;
76447;SDS011;65284;51.040;13.722;2024-02-04T09:54:09;0.75;;;0.38;;
76447;SDS011;65284;51.040;13.722;2024-02-04T09:56:37;1.55;;;0.30;;
76447;SDS011;65284;51.040;13.722;2024-02-04T09:59:04;2.17;;;0.60;;
76447;SDS011;65284;51.040;13.722;2024-02-04T10:01:31;0.60;;;0.30;;
76447;SDS011;65284;51.040;13.722;2024-02-04T10:03:58;0.65;;;0.32;;
76447;SDS011;65284;51.040;13.722;2024-02-04T10:06:25;0.70;;;0.35;;
76447;SDS011;65284;51.040;13.722;2024-02-04T10:08:52;0.90;;;0.30;;
76447;SDS011;65284;51.040;13.722;2024-02-04T10:11:19;0.77;;;0.35;;
76447;SDS011;65284;51.040;13.722;2024-02-04T10:13:46;1.30;;;0.40;;
76447;SDS011;65284;51.040;13.722;2024-02-04T10:16:13;1.13;;;0.40;;
76447;SDS011;65284;51.040;13.722;2024-02-04T10:18:46;1.08;;;0.40;;
76447;SDS011;65284;51.040;13.722;2024-02-04T10:21:19;1.10;;;0.50;;
76447;SDS011;65284;51.040;13.722;2024-02-04T10:23:46;1.42;;;0.52;;
76447;SDS011;65284;51.040;13.722;2024-02-04T10:26:14;1.42;;;0.65;;
76447;SDS011;65284;51.040;13.722;2024-02-04T10:28:41;2.17;;;0.77;;
76447;SDS011;65284;51.040;13.722;2024-02-04T10:31:10;1.95;;;0.85;;
76447;SDS011;65284;51.040;13.722;2024-02-04T10:33:37;3.95;;;1.20;;
76447;SDS011;65284;51.040;13.722;2024-02-04T10:36:04;2.42;;;1.00;;
76447;SDS011;65284;51.040;13.722;2024-02-04T10:38:31;2.25;;;0.93;;
76447;SDS011;65284;51.040;13.722;2024-02-04T10:41:01;2.72;;;1.00;;
76447;SDS011;65284;51.040;13.722;2024-02-04T10:43:32;2.50;;;1.10;;
76447;SDS011;65284;51.040;13.722;2024-02-04T10:46:13;2.80;;;1.20;;
76447;SDS011;65284;51.040;13.722;2024-02-04T10:48:42;2.83;;;1.10;;
76447;SDS011;65284;51.040;13.722;2024-02-04T10:51:15;3.28;;;1.10;;
76447;SDS011;65284;51.040;13.722;2024-02-04T10:53:42;3.15;;;1.20;;
76447;SDS011;65284;51.040;13.722;2024-02-04T10:56:19;3.53;;;1.20;;
76447;SDS011;65284;51.040;13.722;2024-02-04T10:58:49;2.92;;;1.10;;
76447;SDS011;65284;51.040;13.722;2024-02-04T11:01:18;2.30;;;0.90;;
76447;SDS011;65284;51.040;13.722;2024-02-04T11:03:45;3.15;;;1.08;;
76447;SDS011;65284;51.040;13.722;2024-02-04T11:06:12;2.60;;;0.80;;
76447;SDS011;65284;51.040;13.722;2024-02-04T11:08:39;1.73;;;0.80;;
76447;SDS011;65284;51.040;13.722;2024-02-04T11:11:07;3.28;;;0.80;;
76447;SDS011;65284;51.040;13.722;2024-02-04T11:13:33;1.80;;;0.70;;
76447;SDS011;65284;51.040;13.722;2024-02-04T11:19:08;1.50;;;0.60;;
76447;SDS011;65284;51.040;13.722;2024-02-04T11:24:53;1.70;;;0.70;;
76447;SDS011;65284;51.040;13.722;2024-02-04T11:27:21;1.38;;;0.60;;
76447;SDS011;65284;51.040;13.722;2024-02-04T11:29:48;1.27;;;0.60;;
76447;SDS011;65284;51.040;13.722;2024-02-04T11:32:16;1.95;;;0.70;;
76447;SDS011;65284;51.040;13.722;2024-02-04T11:34:46;1.60;;;0.73;;
76447;SDS011;65284;51.040;13.722;2024-02-04T11:37:15;1.73;;;0.80;;
76447;SDS011;65284;51.040;13.722;2024-02-04T11:39:51;1.85;;;0.73;;
76447;SDS011;65284;51.040;13.722;2024-02-04T11:42:19;1.67;;;0.90;;
76447;SDS011;65284;51.040;13.722;2024-02-04T11:44:49;1.60;;;0.80;;
76447;SDS011;65284;51.040;13.722;2024-02-04T11:47:22;2.53;;;1.00;;
76447;SDS011;65284;51.040;13.722;2024-02-04T11:49:54;1.65;;;0.93;;
76447;SDS011;65284;51.040;13.722;2024-02-04T11:52:27;2.80;;;0.88;;
76447;SDS011;65284;51.040;13.722;2024-02-04T11:54:54;2.55;;;1.10;;
76447;SDS011;65284;51.040;13.722;2024-02-04T11:57:22;2.30;;;0.90;;
76447;SDS011;65284;51.040;13.722;2024-02-04T11:59:50;2.03;;;1.00;;
76447;SDS011;65284;51.040;13.722;2024-02-04T12:02:17;2.60;;;1.00;;
76447;SDS011;65284;51.040;13.722;2024-02-04T12:04:44;2.92;;;1.20;;
76447;SDS011;65284;51.040;13.722;2024-02-04T12:07:11;3.22;;;1.20;;
76447;SDS011;65284;51.040;13.722;2024-02-04T12:09:40;2.70;;;1.10;;
76447;SDS011;65284;51.040;13.722;2024-02-04T12:12:07;2.83;;;1.10;;
76447;SDS011;65284;51.040;13.722;2024-02-04T12:14:35;2.42;;;1.23;;
76447;SDS011;65284;51.040;13.722;2024-02-04T12:17:09;4.30;;;1.10;;
76447;SDS011;65284;51.040;13.722;2024-02-04T12:19:37;3.38;;;1.40;;
76447;SDS011;65284;51.040;13.722;2024-02-04T12:22:09;2.22;;;1.08;;
76447;SDS011;65284;51.040;13.722;2024-02-04T12:24:36;2.10;;;0.90;;
76447;SDS011;65284;51.040;13.722;2024-02-04T12:27:06;2.42;;;1.20;;
76447;SDS011;65284;51.040;13.722;2024-02-04T12:29:33;3.30;;;1.35;;
76447;SDS011;65284;51.040;13.722;2024-02-04T12:32:03;3.30;;;1.17;;
76447;SDS011;65284;51.040;13.722;2024-02-04T12:34:30;3.65;;;1.45;;
76447;SDS011;65284;51.040;13.722;2024-02-04T12:37:00;3.17;;;1.38;;
76447;SDS011;65284;51.040;13.722;2024-02-04T12:39:28;2.85;;;1.40;;
76447;SDS011;65284;51.040;13.722;2024-02-04T12:41:55;2.20;;;1.00;;
76447;SDS011;65284;51.040;13.722;2024-02-04T12:44:21;2.72;;;1.20;;
76447;SDS011;65284;51.040;13.722;2024-02-04T12:46:51;2.92;;;1.40;;
76447;SDS011;65284;51.040;13.722;2024-02-04T12:49:19;2.30;;;1.13;;
76447;SDS011;65284;51.040;13.722;2024-02-04T12:51:47;2.60;;;1.20;;
76447;SDS011;65284;51.040;13.722;2024-02-04T12:54:14;3.50;;;1.15;;
76447;SDS011;65284;51.040;13.722;2024-02-04T12:56:48;3.58;;;1.15;;
76447;SDS011;65284;51.040;13.722;2024-02-04T12:59:23;3.45;;;1.40;;
76447;SDS011;65284;51.040;13.722;2024-02-04T13:01:57;3.42;;;1.30;;
76447;SDS011;65284;51.040;13.722;2024-02-04T13:04:25;2.38;;;1.10;;
76447;SDS011;65284;51.040;13.722;2024-02-04T13:06:51;2.13;;;1.02;;
76447;SDS011;65284;51.040;13.722;2024-02-04T13:09:18;2.65;;;1.20;;
76447;SDS011;65284;51.040;13.722;2024-02-04T13:11:46;3.00;;;1.00;;
76447;SDS011;65284;51.040;13.722;2024-02-04T13:14:12;2.53;;;1.25;;
76447;SDS011;65284;51.040;13.722;2024-02-04T13:16:39;2.58;;;1.10;;
76447;SDS011;65284;51.040;13.722;2024-02-04T13:19:05;2.40;;;0.98;;
76447;SDS011;65284;51.040;13.722;2024-02-04T13:21:32;3.63;;;1.08;;
76447;SDS011;65284;51.040;13.722;2024-02-04T13:23:59;1.88;;;0.98;;
76447;SDS011;65284;51.040;13.722;2024-02-04T13:26:25;2.35;;;1.00;;
76447;SDS011;65284;51.040;13.722;2024-02-04T13:28:52;2.92;;;1.10;;
76447;SDS011;65284;51.040;13.722;2024-02-04T13:31:18;2.28;;;1.23;;
76447;SDS011;65284;51.040;13.722;2024-02-04T13:33:45;3.03;;;1.02;;
76447;SDS011;65284;51.040;13.722;2024-02-04T13:36:12;3.28;;;1.17;;
76447;SDS011;65284;51.040;13.722;2024-02-04T13:38:38;2.65;;;1.02;;
76447;SDS011;65284;51.040;13.722;2024-02-04T13:41:05;2.05;;;1.10;;
76447;SDS011;65284;51.040;13.722;2024-02-04T13:43:33;2.40;;;1.10;;
76447;SDS011;65284;51.040;13.722;2024-02-04T13:46:00;2.78;;;1.20;;
76447;SDS011;65284;51.040;13.722;2024-02-04T13:48:28;2.85;;;1.20;;
76447;SDS011;65284;51.040;13.722;2024-02-04T13:50:55;2.67;;;1.27;;
76447;SDS011;65284;51.040;13.722;2024-02-04T13:53:21;2.58;;;1.30;;
76447;SDS011;65284;51.040;13.722;2024-02-04T13:55:51;3.42;;;1.30;;
76447;SDS011;65284;51.040;13.722;2024-02-04T13:58:18;2.30;;;1.20;;
76447;SDS011;65284;51.040;13.722;2024-02-04T14:00:45;2.85;;;1.30;;
76447;SDS011;65284;51.040;13.722;2024-02-04T14:03:12;2.22;;;1.10;;
76447;SDS011;65284;51.040;13.722;2024-02-04T14:05:39;2.90;;;1.25;;
76447;SDS011;65284;51.040;13.722;2024-02-04T14:08:06;2.55;;;1.02;;
76447;SDS011;65284;51.040;13.722;2024-02-04T14:10:33;2.63;;;1.17;;
76447;SDS011;65284;51.040;13.722;2024-02-04T14:13:00;4.47;;;1.50;;
76447;SDS011;65284;51.040;13.722;2024-02-04T14:15:26;3.13;;;1.60;;
76447;SDS011;65284;51.040;13.722;2024-02-04T14:17:53;2.60;;;1.30;;
76447;SDS011;65284;51.040;13.722;2024-02-04T14:20:20;2.88;;;1.40;;
76447;SDS011;65284;51.040;13.722;2024-02-04T14:22:48;2.83;;;1.40;;
76447;SDS011;65284;51.040;13.722;2024-02-04T14:25:15;2.55;;;1.15;;
76447;SDS011;65284;51.040;13.722;2024-02-04T14:27:42;2.97;;;1.25;;
76447;SDS011;65284;51.040;13.722;2024-02-04T14:30:08;2.72;;;1.13;;
76447;SDS011;65284;51.040;13.722;2024-02-04T14:32:35;3.05;;;0.95;;
76447;SDS011;65284;51.040;13.722;2024-02-04T14:35:02;3.13;;;1.00;;
76447;SDS011;65284;51.040;13.722;2024-02-04T14:37:31;2.03;;;0.95;;
76447;SDS011;65284;51.040;13.722;2024-02-04T14:40:01;2.53;;;1.00;;
76447;SDS011;65284;51.040;13.722;2024-02-04T14:42:30;2.40;;;0.88;;
76447;SDS011;65284;51.040;13.722;2024-02-04T14:44:56;2.80;;;1.00;;
76447;SDS011;65284;51.040;13.722;2024-02-04T14:47:23;3.65;;;1.00;;
76447;SDS011;65284;51.040;13.722;2024-02-04T14:49:49;1.75;;;0.80;;
76447;SDS011;65284;51.040;13.722;2024-02-04T14:52:16;1.83;;;0.80;;